sensor_id;sensor_type;location;lat;lon;timestamp;P1;durP1;ratioP1;P2;durP2;ratioP2
52620;SDS011;38515;53.160;6.990;2022-10-31T00:02:19;208.63;;;197.00;;
52620;SDS011;38515;53.160;6.990;2022-10-31T00:04:45;239.80;;;226.65;;
52620;SDS011;38515;53.160;6.990;2022-10-31T00:07:11;219.30;;;207.88;;
52620;SDS011;38515;53.160;6.990;2022-10-31T00:09:37;241.48;;;229.00;;
52620;SDS011;38515;53.160;6.990;2022-10-31T00:12:03;224.40;;;212.68;;
52620;SDS011;38515;53.160;6.990;2022-10-31T00:14:29;208.88;;;197.77;;
52620;SDS011;38515;53.160;6.990;2022-10-31T00:16:55;202.90;;;190.32;;
52620;SDS011;38515;53.160;6.990;2022-10-31T00:19:21;169.75;;;160.13;;
52620;SDS011;38515;53.160;6.990;2022-10-31T00:21:47;214.43;;;201.80;;
52620;SDS011;38515;53.160;6.990;2022-10-31T00:24:12;276.40;;;261.58;;
52620;SDS011;38515;53.160;6.990;2022-10-31T00:26:38;263.42;;;249.60;;
52620;SDS011;38515;53.160;6.990;2022-10-31T00:29:04;274.13;;;260.08;;
52620;SDS011;38515;53.160;6.990;2022-10-31T00:31:30;1999.90;;;999.90;;
52620;SDS011;38515;53.160;6.990;2022-10-31T00:33:56;1999.90;;;999.90;;
52620;SDS011;38515;53.160;6.990;2022-10-31T00:36:23;1999.90;;;999.90;;
52620;SDS011;38515;53.160;6.990;2022-10-31T00:38:49;1999.90;;;999.90;;
52620;SDS011;38515;53.160;6.990;2022-10-31T00:41:15;1999.90;;;999.90;;
52620;SDS011;38515;53.160;6.990;2022-10-31T00:43:42;1999.90;;;999.90;;
52620;SDS011;38515;53.160;6.990;2022-10-31T00:46:09;1999.90;;;999.90;;
52620;SDS011;38515;53.160;6.990;2022-10-31T00:48:35;1999.90;;;999.90;;
52620;SDS011;38515;53.160;6.990;2022-10-31T00:51:01;1999.90;;;999.90;;
52620;SDS011;38515;53.160;6.990;2022-10-31T00:53:27;1999.90;;;999.90;;
52620;SDS011;38515;53.160;6.990;2022-10-31T00:55:53;1999.90;;;999.90;;
52620;SDS011;38515;53.160;6.990;2022-10-31T00:58:19;1999.90;;;999.90;;
52620;SDS011;38515;53.160;6.990;2022-10-31T01:00:46;1999.90;;;999.90;;
52620;SDS011;38515;53.160;6.990;2022-10-31T01:03:20;1999.90;;;999.90;;
52620;SDS011;38515;53.160;6.990;2022-10-31T01:06:05;1999.90;;;999.90;;
52620;SDS011;38515;53.160;6.990;2022-10-31T01:08:33;1999.90;;;999.90;;
52620;SDS011;38515;53.160;6.990;2022-10-31T01:11:02;1999.90;;;999.90;;
52620;SDS011;38515;53.160;6.990;2022-10-31T01:13:31;1999.90;;;999.90;;
52620;SDS011;38515;53.160;6.990;2022-10-31T01:15:58;1999.90;;;999.90;;
52620;SDS011;38515;53.160;6.990;2022-10-31T01:18:24;1999.90;;;999.90;;
52620;SDS011;38515;53.160;6.990;2022-10-31T01:20:59;1999.90;;;999.90;;
52620;SDS011;38515;53.160;6.990;2022-10-31T01:23:26;1999.90;;;999.90;;
52620;SDS011;38515;53.160;6.990;2022-10-31T01:26:05;1999.90;;;999.90;;
52620;SDS011;38515;53.160;6.990;2022-10-31T01:28:44;1999.90;;;999.90;;
52620;SDS011;38515;53.160;6.990;2022-10-31T01:31:11;1999.90;;;999.90;;
52620;SDS011;38515;53.160;6.990;2022-10-31T01:33:39;1999.90;;;999.90;;
52620;SDS011;38515;53.160;6.990;2022-10-31T01:36:12;1999.90;;;999.90;;
52620;SDS011;38515;53.160;6.990;2022-10-31T01:38:39;1999.90;;;999.90;;
52620;SDS011;38515;53.160;6.990;2022-10-31T01:41:05;1999.90;;;999.90;;
52620;SDS011;38515;53.160;6.990;2022-10-31T01:43:42;1999.90;;;999.90;;
52620;SDS011;38515;53.160;6.990;2022-10-31T01:46:10;1999.90;;;999.90;;
52620;SDS011;38515;53.160;6.990;2022-10-31T01:48:36;1999.90;;;999.90;;
52620;SDS011;38515;53.160;6.990;2022-10-31T01:51:04;1999.90;;;999.90;;
52620;SDS011;38515;53.160;6.990;2022-10-31T01:53:31;1999.90;;;999.90;;
52620;SDS011;38515;53.160;6.990;2022-10-31T01:55:57;1999.90;;;999.90;;
52620;SDS011;38515;53.160;6.990;2022-10-31T01:58:25;1999.90;;;999.90;;
52620;SDS011;38515;53.160;6.990;2022-10-31T02:00:56;1999.90;;;999.90;;
52620;SDS011;38515;53.160;6.990;2022-10-31T02:03:24;1999.90;;;999.90;;
52620;SDS011;38515;53.160;6.990;2022-10-31T02:05:53;1999.90;;;999.90;;
52620;SDS011;38515;53.160;6.990;2022-10-31T02:08:23;1999.90;;;999.90;;
52620;SDS011;38515;53.160;6.990;2022-10-31T02:10:53;1999.90;;;999.90;;
52620;SDS011;38515;53.160;6.990;2022-10-31T02:13:21;1999.90;;;999.90;;
52620;SDS011;38515;53.160;6.990;2022-10-31T02:15:49;1999.90;;;999.90;;
52620;SDS011;38515;53.160;6.990;2022-10-31T02:18:18;1999.90;;;999.90;;
52620;SDS011;38515;53.160;6.990;2022-10-31T02:20:49;1999.90;;;999.90;;
52620;SDS011;38515;53.160;6.990;2022-10-31T02:23:44;1999.90;;;999.90;;
52620;SDS011;38515;53.160;6.990;2022-10-31T02:26:33;1999.90;;;999.90;;
52620;SDS011;38515;53.160;6.990;2022-10-31T02:37:07;1999.90;;;999.90;;
52620;SDS011;38515;53.160;6.990;2022-10-31T02:39:42;1999.90;;;999.90;;
52620;SDS011;38515;53.160;6.990;2022-10-31T02:42:19;1999.90;;;999.90;;
52620;SDS011;38515;53.160;6.990;2022-10-31T02:45:04;1999.90;;;999.90;;
52620;SDS011;38515;53.160;6.990;2022-10-31T02:47:34;1999.90;;;999.90;;
52620;SDS011;38515;53.160;6.990;2022-10-31T02:50:04;1999.90;;;999.90;;
52620;SDS011;38515;53.160;6.990;2022-10-31T02:52:34;1999.90;;;999.90;;
52620;SDS011;38515;53.160;6.990;2022-10-31T02:55:09;1999.90;;;999.90;;
52620;SDS011;38515;53.160;6.990;2022-10-31T02:57:37;1999.90;;;999.90;;
52620;SDS011;38515;53.160;6.990;2022-10-31T03:00:06;1999.90;;;999.90;;
52620;SDS011;38515;53.160;6.990;2022-10-31T03:02:38;1999.90;;;999.90;;
52620;SDS011;38515;53.160;6.990;2022-10-31T03:05:29;1999.90;;;999.90;;
52620;SDS011;38515;53.160;6.990;2022-10-31T03:08:01;1999.90;;;999.90;;
52620;SDS011;38515;53.160;6.990;2022-10-31T03:10:35;1999.90;;;999.90;;
52620;SDS011;38515;53.160;6.990;2022-10-31T03:13:13;1999.90;;;999.90;;
52620;SDS011;38515;53.160;6.990;2022-10-31T03:15:49;1999.90;;;999.90;;
52620;SDS011;38515;53.160;6.990;2022-10-31T03:18:21;1999.90;;;999.90;;
52620;SDS011;38515;53.160;6.990;2022-10-31T03:20:55;1999.90;;;999.90;;
52620;SDS011;38515;53.160;6.990;2022-10-31T03:23:26;1999.90;;;999.90;;
52620;SDS011;38515;53.160;6.990;2022-10-31T03:25:55;1999.90;;;999.90;;
52620;SDS011;38515;53.160;6.990;2022-10-31T03:28:23;1999.90;;;999.90;;
52620;SDS011;38515;53.160;6.990;2022-10-31T03:30:54;1999.90;;;999.90;;
52620;SDS011;38515;53.160;6.990;2022-10-31T03:33:27;1999.90;;;999.90;;
52620;SDS011;38515;53.160;6.990;2022-10-31T03:35:57;1999.90;;;999.90;;
52620;SDS011;38515;53.160;6.990;2022-10-31T03:38:26;1999.90;;;999.90;;
52620;SDS011;38515;53.160;6.990;2022-10-31T03:40:54;1999.90;;;999.90;;
52620;SDS011;38515;53.160;6.990;2022-10-31T03:43:24;1999.90;;;999.90;;
52620;SDS011;38515;53.160;6.990;2022-10-31T03:45:55;1999.90;;;999.90;;
52620;SDS011;38515;53.160;6.990;2022-10-31T03:48:21;1999.90;;;999.90;;
52620;SDS011;38515;53.160;6.990;2022-10-31T03:53:19;1999.90;;;999.90;;
52620;SDS011;38515;53.160;6.990;2022-10-31T03:56:06;1999.90;;;999.90;;
52620;SDS011;38515;53.160;6.990;2022-10-31T03:58:39;1999.90;;;999.90;;
52620;SDS011;38515;53.160;6.990;2022-10-31T04:01:11;1999.90;;;999.90;;
52620;SDS011;38515;53.160;6.990;2022-10-31T04:03:40;1999.90;;;999.90;;
52620;SDS011;38515;53.160;6.990;2022-10-31T04:06:08;1999.90;;;999.90;;
52620;SDS011;38515;53.160;6.990;2022-10-31T04:08:48;1999.90;;;999.90;;
52620;SDS011;38515;53.160;6.990;2022-10-31T04:11:20;1999.90;;;999.90;;
52620;SDS011;38515;53.160;6.990;2022-10-31T04:13:50;1999.90;;;999.90;;
52620;SDS011;38515;53.160;6.990;2022-10-31T04:16:18;1999.90;;;999.90;;
52620;SDS011;38515;53.160;6.990;2022-10-31T04:18:45;1999.90;;;999.90;;
52620;SDS011;38515;53.160;6.990;2022-10-31T04:21:11;1999.90;;;999.90;;
52620;SDS011;38515;53.160;6.990;2022-10-31T04:23:37;1999.90;;;999.90;;
52620;SDS011;38515;53.160;6.990;2022-10-31T04:26:03;1999.90;;;999.90;;
52620;SDS011;38515;53.160;6.990;2022-10-31T04:28:29;1999.90;;;999.90;;
52620;SDS011;38515;53.160;6.990;2022-10-31T04:30:55;1999.90;;;999.90;;
52620;SDS011;38515;53.160;6.990;2022-10-31T04:33:21;1999.90;;;999.90;;
52620;SDS011;38515;53.160;6.990;2022-10-31T04:35:47;1999.90;;;999.90;;
52620;SDS011;38515;53.160;6.990;2022-10-31T04:38:13;1999.90;;;999.90;;
52620;SDS011;38515;53.160;6.990;2022-10-31T04:40:38;1999.90;;;999.90;;
52620;SDS011;38515;53.160;6.990;2022-10-31T04:43:04;1999.90;;;999.90;;
52620;SDS011;38515;53.160;6.990;2022-10-31T04:45:30;1999.90;;;999.90;;
52620;SDS011;38515;53.160;6.990;2022-10-31T04:47:56;1999.90;;;999.90;;
52620;SDS011;38515;53.160;6.990;2022-10-31T04:50:22;1999.90;;;999.90;;
52620;SDS011;38515;53.160;6.990;2022-10-31T04:52:48;1999.90;;;999.90;;
52620;SDS011;38515;53.160;6.990;2022-10-31T04:55:14;1999.90;;;999.90;;
52620;SDS011;38515;53.160;6.990;2022-10-31T04:57:42;1999.90;;;999.90;;
52620;SDS011;38515;53.160;6.990;2022-10-31T05:00:09;1999.90;;;999.90;;
52620;SDS011;38515;53.160;6.990;2022-10-31T05:02:42;1999.90;;;999.90;;
52620;SDS011;38515;53.160;6.990;2022-10-31T05:05:09;1999.90;;;999.90;;
52620;SDS011;38515;53.160;6.990;2022-10-31T05:07:39;1999.90;;;999.90;;
52620;SDS011;38515;53.160;6.990;2022-10-31T05:10:06;1999.90;;;999.90;;
52620;SDS011;38515;53.160;6.990;2022-10-31T05:12:35;1999.90;;;999.90;;
52620;SDS011;38515;53.160;6.990;2022-10-31T05:15:00;1999.90;;;999.90;;
52620;SDS011;38515;53.160;6.990;2022-10-31T05:17:26;1999.90;;;999.90;;
52620;SDS011;38515;53.160;6.990;2022-10-31T05:19:52;1999.90;;;999.90;;
52620;SDS011;38515;53.160;6.990;2022-10-31T05:22:18;1999.90;;;999.90;;
52620;SDS011;38515;53.160;6.990;2022-10-31T05:24:43;1999.90;;;999.90;;
52620;SDS011;38515;53.160;6.990;2022-10-31T05:27:09;1999.90;;;999.90;;
52620;SDS011;38515;53.160;6.990;2022-10-31T05:29:35;1999.90;;;999.90;;
52620;SDS011;38515;53.160;6.990;2022-10-31T05:32:01;1999.90;;;999.90;;
52620;SDS011;38515;53.160;6.990;2022-10-31T05:34:27;1999.90;;;999.90;;
52620;SDS011;38515;53.160;6.990;2022-10-31T05:36:52;1999.90;;;999.90;;
52620;SDS011;38515;53.160;6.990;2022-10-31T05:39:18;1999.90;;;999.90;;
52620;SDS011;38515;53.160;6.990;2022-10-31T05:41:44;1999.90;;;999.90;;
52620;SDS011;38515;53.160;6.990;2022-10-31T05:44:10;1999.90;;;999.90;;
52620;SDS011;38515;53.160;6.990;2022-10-31T05:46:35;1999.90;;;999.90;;
52620;SDS011;38515;53.160;6.990;2022-10-31T05:49:01;1999.90;;;999.90;;
52620;SDS011;38515;53.160;6.990;2022-10-31T05:51:27;1999.90;;;999.90;;
52620;SDS011;38515;53.160;6.990;2022-10-31T05:53:53;1999.90;;;999.90;;
52620;SDS011;38515;53.160;6.990;2022-10-31T05:56:19;1999.90;;;999.90;;
52620;SDS011;38515;53.160;6.990;2022-10-31T05:58:45;1999.90;;;999.90;;
52620;SDS011;38515;53.160;6.990;2022-10-31T06:01:10;1999.90;;;999.90;;
52620;SDS011;38515;53.160;6.990;2022-10-31T06:03:36;1999.90;;;999.90;;
52620;SDS011;38515;53.160;6.990;2022-10-31T06:06:02;1999.90;;;999.90;;
52620;SDS011;38515;53.160;6.990;2022-10-31T06:08:28;1999.90;;;999.90;;
52620;SDS011;38515;53.160;6.990;2022-10-31T06:10:54;1999.90;;;999.90;;
52620;SDS011;38515;53.160;6.990;2022-10-31T06:13:20;1999.90;;;999.90;;
52620;SDS011;38515;53.160;6.990;2022-10-31T06:15:46;1999.90;;;999.90;;
52620;SDS011;38515;53.160;6.990;2022-10-31T06:18:12;1999.90;;;999.90;;
52620;SDS011;38515;53.160;6.990;2022-10-31T06:20:38;1999.90;;;999.90;;
52620;SDS011;38515;53.160;6.990;2022-10-31T06:23:04;1999.90;;;999.90;;
52620;SDS011;38515;53.160;6.990;2022-10-31T06:25:31;1999.90;;;999.90;;
52620;SDS011;38515;53.160;6.990;2022-10-31T06:27:58;1999.90;;;999.90;;
52620;SDS011;38515;53.160;6.990;2022-10-31T06:30:24;1999.90;;;999.90;;
52620;SDS011;38515;53.160;6.990;2022-10-31T06:32:50;1999.90;;;999.90;;
52620;SDS011;38515;53.160;6.990;2022-10-31T06:35:16;1999.90;;;999.90;;
52620;SDS011;38515;53.160;6.990;2022-10-31T06:37:42;1999.90;;;999.90;;
52620;SDS011;38515;53.160;6.990;2022-10-31T06:40:15;1999.90;;;999.90;;
52620;SDS011;38515;53.160;6.990;2022-10-31T06:42:41;1999.90;;;999.90;;
52620;SDS011;38515;53.160;6.990;2022-10-31T06:45:07;1999.90;;;999.90;;
52620;SDS011;38515;53.160;6.990;2022-10-31T06:47:33;1999.90;;;999.90;;
52620;SDS011;38515;53.160;6.990;2022-10-31T06:49:59;1999.90;;;999.90;;
52620;SDS011;38515;53.160;6.990;2022-10-31T06:52:24;1999.90;;;999.90;;
52620;SDS011;38515;53.160;6.990;2022-10-31T06:54:50;1999.90;;;999.90;;
52620;SDS011;38515;53.160;6.990;2022-10-31T06:57:16;1999.90;;;999.90;;
52620;SDS011;38515;53.160;6.990;2022-10-31T06:59:42;1999.90;;;999.90;;
52620;SDS011;38515;53.160;6.990;2022-10-31T07:02:09;1999.90;;;999.90;;
52620;SDS011;38515;53.160;6.990;2022-10-31T07:04:37;1999.90;;;999.90;;
52620;SDS011;38515;53.160;6.990;2022-10-31T07:07:04;1999.90;;;999.90;;
52620;SDS011;38515;53.160;6.990;2022-10-31T07:09:30;1999.90;;;999.90;;
52620;SDS011;38515;53.160;6.990;2022-10-31T07:11:56;1999.90;;;999.90;;
52620;SDS011;38515;53.160;6.990;2022-10-31T07:14:22;1999.90;;;999.90;;
52620;SDS011;38515;53.160;6.990;2022-10-31T07:16:49;1999.90;;;999.90;;
52620;SDS011;38515;53.160;6.990;2022-10-31T07:19:16;1999.90;;;999.90;;
52620;SDS011;38515;53.160;6.990;2022-10-31T07:21:42;1999.90;;;999.90;;
52620;SDS011;38515;53.160;6.990;2022-10-31T07:24:08;1999.90;;;999.90;;
52620;SDS011;38515;53.160;6.990;2022-10-31T07:26:33;1999.90;;;999.90;;
52620;SDS011;38515;53.160;6.990;2022-10-31T07:28:59;1999.90;;;999.90;;
52620;SDS011;38515;53.160;6.990;2022-10-31T07:31:25;1999.90;;;999.90;;
52620;SDS011;38515;53.160;6.990;2022-10-31T07:33:51;1999.90;;;999.90;;
52620;SDS011;38515;53.160;6.990;2022-10-31T07:36:17;1999.90;;;999.90;;
52620;SDS011;38515;53.160;6.990;2022-10-31T07:38:43;1999.90;;;999.90;;
52620;SDS011;38515;53.160;6.990;2022-10-31T07:41:09;1999.90;;;999.90;;
52620;SDS011;38515;53.160;6.990;2022-10-31T07:43:35;1999.90;;;999.90;;
52620;SDS011;38515;53.160;6.990;2022-10-31T07:46:00;1999.90;;;999.90;;
52620;SDS011;38515;53.160;6.990;2022-10-31T07:48:26;1999.90;;;999.90;;
52620;SDS011;38515;53.160;6.990;2022-10-31T07:50:52;1999.90;;;999.90;;
52620;SDS011;38515;53.160;6.990;2022-10-31T07:53:18;1999.90;;;999.90;;
52620;SDS011;38515;53.160;6.990;2022-10-31T07:55:44;1999.90;;;999.90;;
52620;SDS011;38515;53.160;6.990;2022-10-31T07:58:11;1999.90;;;999.90;;
52620;SDS011;38515;53.160;6.990;2022-10-31T08:00:39;1999.90;;;999.90;;
52620;SDS011;38515;53.160;6.990;2022-10-31T08:03:07;1999.90;;;999.90;;
52620;SDS011;38515;53.160;6.990;2022-10-31T08:05:35;1999.90;;;999.90;;
52620;SDS011;38515;53.160;6.990;2022-10-31T08:08:02;1999.90;;;999.90;;
52620;SDS011;38515;53.160;6.990;2022-10-31T08:10:29;1999.90;;;999.90;;
52620;SDS011;38515;53.160;6.990;2022-10-31T08:12:56;1999.90;;;999.90;;
52620;SDS011;38515;53.160;6.990;2022-10-31T08:15:23;1999.90;;;999.90;;
52620;SDS011;38515;53.160;6.990;2022-10-31T08:17:49;1999.90;;;999.90;;
52620;SDS011;38515;53.160;6.990;2022-10-31T08:20:15;1999.90;;;999.90;;
52620;SDS011;38515;53.160;6.990;2022-10-31T08:22:41;1999.90;;;999.90;;
52620;SDS011;38515;53.160;6.990;2022-10-31T08:25:07;1999.90;;;999.90;;
52620;SDS011;38515;53.160;6.990;2022-10-31T08:27:33;1999.90;;;999.90;;
52620;SDS011;38515;53.160;6.990;2022-10-31T08:29:59;1999.90;;;999.90;;
52620;SDS011;38515;53.160;6.990;2022-10-31T08:32:25;1999.90;;;999.90;;
52620;SDS011;38515;53.160;6.990;2022-10-31T08:34:51;1999.90;;;999.90;;
52620;SDS011;38515;53.160;6.990;2022-10-31T08:37:17;1999.90;;;999.90;;
52620;SDS011;38515;53.160;6.990;2022-10-31T08:39:46;1999.90;;;999.90;;
52620;SDS011;38515;53.160;6.990;2022-10-31T08:42:12;1999.90;;;999.90;;
52620;SDS011;38515;53.160;6.990;2022-10-31T08:44:38;1999.90;;;999.90;;
52620;SDS011;38515;53.160;6.990;2022-10-31T08:47:04;1999.90;;;999.90;;
52620;SDS011;38515;53.160;6.990;2022-10-31T08:49:30;1999.90;;;999.90;;
52620;SDS011;38515;53.160;6.990;2022-10-31T08:51:56;1999.90;;;999.90;;
52620;SDS011;38515;53.160;6.990;2022-10-31T08:54:22;1999.90;;;999.90;;
52620;SDS011;38515;53.160;6.990;2022-10-31T08:56:47;1999.90;;;999.90;;
52620;SDS011;38515;53.160;6.990;2022-10-31T08:59:18;300.65;;;285.63;;
52620;SDS011;38515;53.160;6.990;2022-10-31T09:01:44;220.23;;;209.50;;
52620;SDS011;38515;53.160;6.990;2022-10-31T09:04:10;176.65;;;167.65;;
52620;SDS011;38515;53.160;6.990;2022-10-31T09:06:36;189.73;;;179.73;;
52620;SDS011;38515;53.160;6.990;2022-10-31T09:09:02;119.63;;;113.15;;
52620;SDS011;38515;53.160;6.990;2022-10-31T09:11:29;80.53;;;75.20;;
52620;SDS011;38515;53.160;6.990;2022-10-31T09:13:55;95.65;;;89.82;;
52620;SDS011;38515;53.160;6.990;2022-10-31T09:16:21;117.10;;;110.75;;
52620;SDS011;38515;53.160;6.990;2022-10-31T09:18:47;94.90;;;89.20;;
52620;SDS011;38515;53.160;6.990;2022-10-31T09:21:13;89.30;;;83.90;;
52620;SDS011;38515;53.160;6.990;2022-10-31T09:23:38;81.00;;;76.20;;
52620;SDS011;38515;53.160;6.990;2022-10-31T09:26:04;84.00;;;78.97;;
52620;SDS011;38515;53.160;6.990;2022-10-31T09:28:31;75.22;;;70.75;;
52620;SDS011;38515;53.160;6.990;2022-10-31T09:30:57;76.13;;;71.28;;
52620;SDS011;38515;53.160;6.990;2022-10-31T09:33:23;84.70;;;79.07;;
52620;SDS011;38515;53.160;6.990;2022-10-31T09:35:49;99.57;;;93.82;;
52620;SDS011;38515;53.160;6.990;2022-10-31T09:38:16;91.80;;;86.80;;
52620;SDS011;38515;53.160;6.990;2022-10-31T09:40:47;86.85;;;81.85;;
52620;SDS011;38515;53.160;6.990;2022-10-31T09:43:22;87.22;;;81.88;;
52620;SDS011;38515;53.160;6.990;2022-10-31T09:51:11;79.95;;;75.13;;
52620;SDS011;38515;53.160;6.990;2022-10-31T09:53:48;87.63;;;82.47;;
52620;SDS011;38515;53.160;6.990;2022-10-31T09:56:18;85.57;;;80.85;;
52620;SDS011;38515;53.160;6.990;2022-10-31T09:58:46;89.85;;;84.63;;
52620;SDS011;38515;53.160;6.990;2022-10-31T10:01:23;95.88;;;91.05;;
52620;SDS011;38515;53.160;6.990;2022-10-31T10:03:53;90.38;;;85.40;;
52620;SDS011;38515;53.160;6.990;2022-10-31T10:06:23;95.43;;;90.10;;
52620;SDS011;38515;53.160;6.990;2022-10-31T10:08:52;85.50;;;80.72;;
52620;SDS011;38515;53.160;6.990;2022-10-31T10:11:27;76.30;;;71.90;;
52620;SDS011;38515;53.160;6.990;2022-10-31T10:17:00;57.47;;;54.15;;
52620;SDS011;38515;53.160;6.990;2022-10-31T10:22:23;60.75;;;57.05;;
52620;SDS011;38515;53.160;6.990;2022-10-31T10:25:08;57.08;;;53.38;;
52620;SDS011;38515;53.160;6.990;2022-10-31T10:27:45;47.30;;;44.25;;
52620;SDS011;38515;53.160;6.990;2022-10-31T10:30:17;41.83;;;39.10;;
52620;SDS011;38515;53.160;6.990;2022-10-31T10:32:48;45.40;;;42.42;;
52620;SDS011;38515;53.160;6.990;2022-10-31T10:35:22;45.60;;;42.70;;
52620;SDS011;38515;53.160;6.990;2022-10-31T10:37:59;44.88;;;42.08;;
52620;SDS011;38515;53.160;6.990;2022-10-31T10:40:34;45.88;;;42.97;;
52620;SDS011;38515;53.160;6.990;2022-10-31T10:43:11;49.67;;;46.28;;
52620;SDS011;38515;53.160;6.990;2022-10-31T10:45:45;45.65;;;42.35;;
52620;SDS011;38515;53.160;6.990;2022-10-31T10:48:42;42.38;;;39.78;;
52620;SDS011;38515;53.160;6.990;2022-10-31T10:51:17;42.67;;;39.85;;
52620;SDS011;38515;53.160;6.990;2022-10-31T10:59:22;47.78;;;44.70;;
52620;SDS011;38515;53.160;6.990;2022-10-31T11:01:48;50.42;;;47.15;;
52620;SDS011;38515;53.160;6.990;2022-10-31T11:06:56;49.15;;;45.97;;
52620;SDS011;38515;53.160;6.990;2022-10-31T11:09:26;47.33;;;43.80;;
52620;SDS011;38515;53.160;6.990;2022-10-31T11:11:52;43.35;;;40.35;;
52620;SDS011;38515;53.160;6.990;2022-10-31T11:14:20;50.63;;;47.47;;
52620;SDS011;38515;53.160;6.990;2022-10-31T11:16:47;47.75;;;44.53;;
52620;SDS011;38515;53.160;6.990;2022-10-31T11:19:17;47.20;;;43.80;;
52620;SDS011;38515;53.160;6.990;2022-10-31T11:21:47;45.85;;;42.33;;
52620;SDS011;38515;53.160;6.990;2022-10-31T11:26:43;44.60;;;41.80;;
52620;SDS011;38515;53.160;6.990;2022-10-31T11:29:26;42.33;;;39.35;;
52620;SDS011;38515;53.160;6.990;2022-10-31T11:31:52;44.75;;;41.70;;
52620;SDS011;38515;53.160;6.990;2022-10-31T11:34:35;46.63;;;43.33;;
52620;SDS011;38515;53.160;6.990;2022-10-31T11:37:15;42.97;;;39.92;;
52620;SDS011;38515;53.160;6.990;2022-10-31T11:39:44;44.05;;;41.03;;
52620;SDS011;38515;53.160;6.990;2022-10-31T11:42:18;44.50;;;41.33;;
52620;SDS011;38515;53.160;6.990;2022-10-31T11:44:46;42.92;;;40.15;;
52620;SDS011;38515;53.160;6.990;2022-10-31T11:47:14;46.25;;;43.00;;
52620;SDS011;38515;53.160;6.990;2022-10-31T11:49:42;42.50;;;40.05;;
52620;SDS011;38515;53.160;6.990;2022-10-31T11:52:20;42.83;;;40.00;;
52620;SDS011;38515;53.160;6.990;2022-10-31T11:54:53;38.00;;;35.60;;
52620;SDS011;38515;53.160;6.990;2022-10-31T11:57:23;35.03;;;32.95;;
52620;SDS011;38515;53.160;6.990;2022-10-31T11:59:54;33.85;;;31.45;;
52620;SDS011;38515;53.160;6.990;2022-10-31T12:02:23;36.75;;;34.10;;
52620;SDS011;38515;53.160;6.990;2022-10-31T12:04:51;36.28;;;34.08;;
52620;SDS011;38515;53.160;6.990;2022-10-31T12:07:22;36.40;;;33.80;;
52620;SDS011;38515;53.160;6.990;2022-10-31T12:09:48;34.28;;;32.05;;
52620;SDS011;38515;53.160;6.990;2022-10-31T12:12:18;33.08;;;30.48;;
52620;SDS011;38515;53.160;6.990;2022-10-31T12:15:07;34.30;;;31.77;;
52620;SDS011;38515;53.160;6.990;2022-10-31T12:17:47;31.60;;;29.15;;
52620;SDS011;38515;53.160;6.990;2022-10-31T12:20:35;30.70;;;28.52;;
52620;SDS011;38515;53.160;6.990;2022-10-31T12:23:25;32.95;;;30.50;;
52620;SDS011;38515;53.160;6.990;2022-10-31T12:25:56;29.75;;;27.35;;
52620;SDS011;38515;53.160;6.990;2022-10-31T12:28:51;31.88;;;29.25;;
52620;SDS011;38515;53.160;6.990;2022-10-31T12:31:24;34.05;;;31.38;;
52620;SDS011;38515;53.160;6.990;2022-10-31T12:34:02;36.00;;;33.50;;
52620;SDS011;38515;53.160;6.990;2022-10-31T12:36:59;34.97;;;32.37;;
52620;SDS011;38515;53.160;6.990;2022-10-31T12:42:13;33.13;;;31.02;;
52620;SDS011;38515;53.160;6.990;2022-10-31T12:44:52;34.78;;;32.42;;
52620;SDS011;38515;53.160;6.990;2022-10-31T12:55:47;30.48;;;28.50;;
52620;SDS011;38515;53.160;6.990;2022-10-31T12:58:26;37.22;;;34.63;;
52620;SDS011;38515;53.160;6.990;2022-10-31T13:01:03;36.45;;;33.90;;
52620;SDS011;38515;53.160;6.990;2022-10-31T13:03:42;33.88;;;31.45;;
52620;SDS011;38515;53.160;6.990;2022-10-31T13:06:14;37.30;;;34.42;;
52620;SDS011;38515;53.160;6.990;2022-10-31T13:08:46;34.75;;;31.80;;
52620;SDS011;38515;53.160;6.990;2022-10-31T13:11:21;35.08;;;32.67;;
52620;SDS011;38515;53.160;6.990;2022-10-31T13:16:37;37.47;;;34.92;;
52620;SDS011;38515;53.160;6.990;2022-10-31T13:19:17;36.72;;;34.03;;
52620;SDS011;38515;53.160;6.990;2022-10-31T13:24:33;36.75;;;33.65;;
52620;SDS011;38515;53.160;6.990;2022-10-31T13:27:17;37.97;;;35.22;;
52620;SDS011;38515;53.160;6.990;2022-10-31T13:29:58;33.97;;;31.63;;
52620;SDS011;38515;53.160;6.990;2022-10-31T13:32:43;33.63;;;31.13;;
52620;SDS011;38515;53.160;6.990;2022-10-31T13:35:21;33.60;;;31.20;;
52620;SDS011;38515;53.160;6.990;2022-10-31T13:37:57;33.67;;;31.25;;
52620;SDS011;38515;53.160;6.990;2022-10-31T13:40:36;32.78;;;30.10;;
52620;SDS011;38515;53.160;6.990;2022-10-31T13:43:11;30.98;;;28.83;;
52620;SDS011;38515;53.160;6.990;2022-10-31T13:45:48;34.35;;;31.83;;
52620;SDS011;38515;53.160;6.990;2022-10-31T13:50:42;33.25;;;30.67;;
52620;SDS011;38515;53.160;6.990;2022-10-31T13:53:21;31.88;;;29.58;;
52620;SDS011;38515;53.160;6.990;2022-10-31T13:55:49;33.22;;;30.73;;
52620;SDS011;38515;53.160;6.990;2022-10-31T13:58:27;32.42;;;30.23;;
52620;SDS011;38515;53.160;6.990;2022-10-31T14:01:12;35.03;;;32.42;;
52620;SDS011;38515;53.160;6.990;2022-10-31T14:04:05;32.05;;;29.38;;
52620;SDS011;38515;53.160;6.990;2022-10-31T14:06:40;31.77;;;29.23;;
52620;SDS011;38515;53.160;6.990;2022-10-31T14:09:29;29.48;;;27.27;;
52620;SDS011;38515;53.160;6.990;2022-10-31T14:12:01;31.65;;;29.27;;
52620;SDS011;38515;53.160;6.990;2022-10-31T14:14:32;34.63;;;31.40;;
52620;SDS011;38515;53.160;6.990;2022-10-31T14:17:05;36.22;;;33.58;;
52620;SDS011;38515;53.160;6.990;2022-10-31T14:19:38;33.53;;;31.02;;
52620;SDS011;38515;53.160;6.990;2022-10-31T14:22:18;35.03;;;32.67;;
52620;SDS011;38515;53.160;6.990;2022-10-31T14:24:46;34.17;;;32.10;;
52620;SDS011;38515;53.160;6.990;2022-10-31T14:29:45;39.38;;;36.53;;
52620;SDS011;38515;53.160;6.990;2022-10-31T14:34:42;41.40;;;38.72;;
52620;SDS011;38515;53.160;6.990;2022-10-31T14:40:07;42.90;;;39.85;;
52620;SDS011;38515;53.160;6.990;2022-10-31T14:42:44;41.75;;;38.15;;
52620;SDS011;38515;53.160;6.990;2022-10-31T14:50:40;40.88;;;38.08;;
52620;SDS011;38515;53.160;6.990;2022-10-31T14:53:18;39.72;;;37.28;;
52620;SDS011;38515;53.160;6.990;2022-10-31T14:55:56;39.17;;;36.40;;
52620;SDS011;38515;53.160;6.990;2022-10-31T15:01:00;39.95;;;37.58;;
52620;SDS011;38515;53.160;6.990;2022-10-31T15:05:58;31.02;;;28.88;;
52620;SDS011;38515;53.160;6.990;2022-10-31T15:11:13;24.55;;;22.83;;
52620;SDS011;38515;53.160;6.990;2022-10-31T15:13:46;26.20;;;24.60;;
52620;SDS011;38515;53.160;6.990;2022-10-31T15:16:13;27.85;;;26.00;;
52620;SDS011;38515;53.160;6.990;2022-10-31T15:18:48;26.70;;;24.95;;
52620;SDS011;38515;53.160;6.990;2022-10-31T15:21:22;25.55;;;24.02;;
52620;SDS011;38515;53.160;6.990;2022-10-31T15:23:50;26.35;;;24.27;;
52620;SDS011;38515;53.160;6.990;2022-10-31T15:26:19;26.25;;;24.27;;
52620;SDS011;38515;53.160;6.990;2022-10-31T15:28:57;25.33;;;23.75;;